createdAt,value
2018-05-10T00:01:25.403Z,16.10
2018-05-10T00:03:52.937Z,15.70
2018-05-10T00:06:20.469Z,15.63
2018-05-10T00:08:47.983Z,15.77
2018-05-10T00:11:15.508Z,15.17
2018-05-10T00:13:43.074Z,15.50
2018-05-10T00:16:10.605Z,15.37
2018-05-10T00:18:38.206Z,16.70
2018-05-10T00:21:05.859Z,16.13
2018-05-10T00:23:33.373Z,15.70
2018-05-10T00:26:00.940Z,15.70
2018-05-10T00:28:28.740Z,16.73
2018-05-10T00:30:56.422Z,16.00
2018-05-10T00:33:23.956Z,15.47
2018-05-10T00:35:51.498Z,16.87
2018-05-10T00:38:19.215Z,15.83
2018-05-10T00:40:46.980Z,16.33
2018-05-10T00:43:14.542Z,15.40
2018-05-10T00:45:42.139Z,16.23
2018-05-10T00:48:09.671Z,16.57
2018-05-10T00:50:37.204Z,15.93
2018-05-10T00:53:04.715Z,16.27
2018-05-10T00:55:32.239Z,15.50
2018-05-10T00:57:59.816Z,16.27
2018-05-10T01:00:27.292Z,16.30
2018-05-10T01:02:54.797Z,16.97
2018-05-10T01:05:22.657Z,15.30
2018-05-10T01:07:50.291Z,16.10
2018-05-10T01:10:17.903Z,16.53
2018-05-10T01:12:45.678Z,16.30
2018-05-10T01:15:13.259Z,16.00
2018-05-10T01:17:40.783Z,15.73
2018-05-10T01:20:08.278Z,16.50
2018-05-10T01:22:36.112Z,15.57
2018-05-10T01:25:03.627Z,17.27
2018-05-10T01:27:31.187Z,16.43
2018-05-10T01:29:58.787Z,16.37
2018-05-10T01:32:26.383Z,15.93
2018-05-10T01:35:06.190Z,16.20
2018-05-10T01:37:33.714Z,16.23
2018-05-10T01:40:01.256Z,15.90
2018-05-10T01:42:28.807Z,15.97
2018-05-10T01:44:56.329Z,16.63
2018-05-10T01:47:23.885Z,15.53
2018-05-10T01:49:51.413Z,16.40
2018-05-10T01:52:18.942Z,16.00
2018-05-10T01:54:46.471Z,16.90
2018-05-10T01:57:14.030Z,15.73
2018-05-10T01:59:41.565Z,17.80
2018-05-10T02:02:09.087Z,16.23
2018-05-10T02:04:36.627Z,16.90
2018-05-10T02:07:04.300Z,15.43
2018-05-10T02:09:31.806Z,17.03
2018-05-10T02:11:59.361Z,16.43
2018-05-10T02:14:26.919Z,16.93
2018-05-10T02:16:54.487Z,16.43
2018-05-10T02:19:22.017Z,15.83
2018-05-10T02:21:49.573Z,16.80
2018-05-10T02:24:17.090Z,16.27
2018-05-10T02:26:44.602Z,16.20
2018-05-10T02:29:12.136Z,14.67
2018-05-10T02:31:39.782Z,16.13
2018-05-10T02:34:07.302Z,16.00
2018-05-10T02:36:34.861Z,15.83
2018-05-10T02:39:02.436Z,16.13
2018-05-10T02:41:29.984Z,16.23
2018-05-10T02:43:57.505Z,15.93
2018-05-10T02:46:25.137Z,16.70
2018-05-10T02:48:52.680Z,15.77
2018-05-10T02:51:20.196Z,16.30
2018-05-10T02:53:47.699Z,16.00
2018-05-10T02:56:15.238Z,15.50
2018-05-10T02:58:42.750Z,15.73
2018-05-10T03:01:10.283Z,16.03
2018-05-10T03:03:37.815Z,16.20
2018-05-10T03:06:05.611Z,15.83
2018-05-10T03:08:33.132Z,15.77
2018-05-10T03:11:00.654Z,15.43
2018-05-10T03:13:28.260Z,16.30
2018-05-10T03:15:55.815Z,17.77
2018-05-10T03:18:23.637Z,16.37
2018-05-10T03:20:51.153Z,16.50
2018-05-10T03:23:18.694Z,16.00
2018-05-10T03:25:46.236Z,15.33
2018-05-10T03:28:14.086Z,16.40
2018-05-10T03:30:41.601Z,16.40
2018-05-10T03:33:09.164Z,15.83
2018-05-10T03:35:36.674Z,17.60
2018-05-10T03:38:04.348Z,15.80
2018-05-10T03:40:32.006Z,15.73
2018-05-10T03:42:59.497Z,16.07
2018-05-10T03:45:27.031Z,14.90
2018-05-10T03:47:54.574Z,16.10
2018-05-10T03:50:22.123Z,15.03
2018-05-10T03:52:49.680Z,16.20
2018-05-10T03:55:17.214Z,15.53
2018-05-10T03:57:44.759Z,16.00
2018-05-10T04:00:12.286Z,16.20
2018-05-10T04:06:05.634Z,16.30
2018-05-10T04:08:44.913Z,15.30
2018-05-10T04:11:31.207Z,17.10
2018-05-10T04:13:58.818Z,15.80
2018-05-10T04:16:26.347Z,15.87
2018-05-10T04:18:53.889Z,16.70
2018-05-10T04:21:21.740Z,16.40
2018-05-10T04:23:49.282Z,16.30
2018-05-10T04:26:16.798Z,16.17
2018-05-10T04:28:44.333Z,15.23
2018-05-10T04:31:11.847Z,16.60
2018-05-10T04:33:39.392Z,16.37
2018-05-10T04:36:06.928Z,15.50
2018-05-10T04:38:34.563Z,15.70
2018-05-10T04:41:02.083Z,15.43
2018-05-10T04:43:29.639Z,17.53
2018-05-10T04:45:57.164Z,16.30
2018-05-10T04:48:24.951Z,16.63
2018-05-10T04:50:52.481Z,15.60
2018-05-10T04:53:20.016Z,15.80
2018-05-10T04:55:47.548Z,16.90
2018-05-10T04:58:15.092Z,16.10
2018-05-10T05:00:42.620Z,16.37
2018-05-10T05:03:10.157Z,16.13
2018-05-10T05:05:37.660Z,15.73
2018-05-10T05:08:05.205Z,19.37
2018-05-10T05:10:32.785Z,20.10
2018-05-10T05:13:00.379Z,15.37
2018-05-10T05:15:27.898Z,15.43
2018-05-10T05:17:55.441Z,15.33
2018-05-10T05:20:23.343Z,14.83
2018-05-10T05:22:50.875Z,15.50
2018-05-10T05:25:18.393Z,15.70
2018-05-10T05:27:45.925Z,15.50
2018-05-10T05:30:13.454Z,15.30
2018-05-10T05:32:41.078Z,21.60
2018-05-10T05:35:08.623Z,18.57
2018-05-10T05:37:36.155Z,15.67
2018-05-10T05:40:03.710Z,16.13
2018-05-10T05:42:31.319Z,15.40
2018-05-10T05:44:58.861Z,16.20
2018-05-10T05:47:26.403Z,14.93
2018-05-10T05:49:53.960Z,16.30
2018-05-10T05:52:21.461Z,15.50
2018-05-10T05:54:49.052Z,15.50
2018-05-10T05:57:16.558Z,15.87
2018-05-10T05:59:44.112Z,14.93
2018-05-10T06:02:11.649Z,15.83
2018-05-10T06:04:39.211Z,15.47
2018-05-10T06:07:07.058Z,16.23
2018-05-10T06:09:34.606Z,15.27
2018-05-10T06:12:02.158Z,14.90
2018-05-10T06:14:29.768Z,16.03
2018-05-10T06:16:57.295Z,15.83
2018-05-10T06:19:24.837Z,15.40
2018-05-10T06:21:52.623Z,14.93
2018-05-10T06:24:20.163Z,15.70
2018-05-10T06:26:48.736Z,14.83
2018-05-10T06:29:16.279Z,15.90
2018-05-10T06:31:43.795Z,15.40
2018-05-10T06:34:11.339Z,15.53
2018-05-10T06:36:38.855Z,14.87
2018-05-10T06:39:06.594Z,17.00
2018-05-10T06:41:36.860Z,34.67
2018-05-10T06:44:04.362Z,15.33
2018-05-10T06:46:31.878Z,15.43
2018-05-10T06:48:59.410Z,15.97
2018-05-10T06:51:26.924Z,15.03
2018-05-10T06:53:54.566Z,15.67
2018-05-10T06:56:22.155Z,17.00
2018-05-10T06:58:49.681Z,16.57
2018-05-10T07:01:17.246Z,14.40
2018-05-10T07:03:44.853Z,15.73
2018-05-10T07:06:12.370Z,15.17
2018-05-10T07:08:39.912Z,15.83
2018-05-10T07:11:07.728Z,15.13
2018-05-10T07:13:35.295Z,16.07
2018-05-10T07:16:02.818Z,15.73
2018-05-10T07:18:30.378Z,15.93
2018-05-10T07:20:57.956Z,16.00
2018-05-10T07:23:25.488Z,14.67
2018-05-10T07:25:53.050Z,14.77
2018-05-10T07:28:20.581Z,16.33
2018-05-10T07:30:48.444Z,15.17
2018-05-10T07:33:15.970Z,16.03
2018-05-10T07:35:43.489Z,15.10
2018-05-10T07:38:11.053Z,15.30
2018-05-10T07:40:38.612Z,15.53
2018-05-10T07:43:06.175Z,23.43
2018-05-10T07:45:33.724Z,18.10
2018-05-10T07:48:01.269Z,15.30
2018-05-10T07:50:28.819Z,22.90
2018-05-10T07:52:56.351Z,15.07
2018-05-10T07:55:23.937Z,14.70
2018-05-10T07:57:51.498Z,15.07
2018-05-10T08:00:19.027Z,14.53
2018-05-10T08:02:46.582Z,15.10
2018-05-10T08:05:14.160Z,14.70
2018-05-10T08:07:41.758Z,14.13
2018-05-10T08:10:09.352Z,15.40
2018-05-10T08:12:44.505Z,14.17
2018-05-10T08:15:12.046Z,14.40
2018-05-10T08:17:39.619Z,14.57
2018-05-10T08:20:07.195Z,14.50
2018-05-10T08:22:34.737Z,13.50
2018-05-10T08:25:02.356Z,13.90
2018-05-10T08:27:52.663Z,13.67
2018-05-10T08:30:20.258Z,13.80
2018-05-10T08:32:47.795Z,13.60
2018-05-10T08:35:15.659Z,13.60
2018-05-10T08:37:44.566Z,12.93
2018-05-10T08:40:12.147Z,13.30
2018-05-10T08:42:39.657Z,13.87
2018-05-10T08:45:07.281Z,13.30
2018-05-10T08:47:34.843Z,13.20
2018-05-10T08:50:02.450Z,12.90
2018-05-10T08:52:30.286Z,12.90
2018-05-10T08:54:59.374Z,13.23
2018-05-10T08:57:26.895Z,13.80
2018-05-10T08:59:54.563Z,13.73
2018-05-10T09:02:22.092Z,13.60
2018-05-10T09:04:49.745Z,13.77
2018-05-10T09:07:17.324Z,12.50
2018-05-10T09:09:44.847Z,13.70
2018-05-10T09:12:12.485Z,12.87
2018-05-10T09:14:40.177Z,13.60
2018-05-10T09:17:08.056Z,14.00
2018-05-10T09:19:35.579Z,13.20
2018-05-10T09:22:03.108Z,14.13
2018-05-10T09:24:30.627Z,13.17
2018-05-10T09:26:58.218Z,12.80
2018-05-10T09:29:25.763Z,13.17
2018-05-10T09:31:54.479Z,13.50
2018-05-10T09:34:22.006Z,12.97
2018-05-10T09:36:49.574Z,12.90
2018-05-10T09:39:19.317Z,13.70
2018-05-10T09:41:52.487Z,13.00
2018-05-10T09:44:20.023Z,13.00
2018-05-10T09:46:47.613Z,13.00
2018-05-10T09:49:15.241Z,12.90
2018-05-10T09:51:42.809Z,12.30
2018-05-10T09:54:10.414Z,14.40
2018-05-10T09:56:38.343Z,13.33
2018-05-10T09:59:05.878Z,12.87
2018-05-10T10:01:33.807Z,13.87
2018-05-10T10:04:01.383Z,14.60
2018-05-10T10:06:28.927Z,13.60
2018-05-10T10:08:56.970Z,12.73
2018-05-10T10:11:24.559Z,13.60
2018-05-10T10:13:52.533Z,13.37
2018-05-10T10:16:20.120Z,13.70
2018-05-10T10:18:47.629Z,14.37
2018-05-10T10:21:15.379Z,13.70
2018-05-10T10:23:43.021Z,13.37
2018-05-10T10:26:10.578Z,20.20
2018-05-10T10:28:38.111Z,14.47
2018-05-10T10:31:05.811Z,14.00
2018-05-10T10:33:33.588Z,13.37
2018-05-10T10:36:01.147Z,12.70
2018-05-10T10:38:28.833Z,12.93
2018-05-10T10:40:56.398Z,14.13
2018-05-10T10:43:23.921Z,13.10
2018-05-10T10:45:51.539Z,13.10
2018-05-10T10:48:19.050Z,14.23
2018-05-10T10:50:46.568Z,13.60
2018-05-10T10:53:14.478Z,13.70
2018-05-10T10:55:42.040Z,14.50
2018-05-10T10:58:09.722Z,14.10
2018-05-10T11:00:37.327Z,13.27
2018-05-10T11:03:04.954Z,13.17
2018-05-10T11:05:32.536Z,13.10
2018-05-10T11:08:00.139Z,12.70
2018-05-10T11:10:27.661Z,13.33
2018-05-10T11:12:55.692Z,14.10
2018-05-10T11:15:23.268Z,13.17
2018-05-10T11:17:51.048Z,13.73
2018-05-10T11:20:23.255Z,12.70
2018-05-10T11:22:52.002Z,13.47
2018-05-10T11:25:23.980Z,13.33
2018-05-10T11:27:53.917Z,13.00
2018-05-10T11:30:24.509Z,13.10
2018-05-10T11:32:52.188Z,13.00
2018-05-10T11:35:20.374Z,13.53
2018-05-10T11:37:48.258Z,13.47
2018-05-10T11:40:15.948Z,13.53
2018-05-10T11:42:43.832Z,13.80
2018-05-10T11:45:13.605Z,13.10
2018-05-10T11:47:41.227Z,13.50
2018-05-10T11:50:08.812Z,13.77
2018-05-10T11:52:36.366Z,13.97
2018-05-10T11:55:03.894Z,13.43
2018-05-10T11:57:31.430Z,13.20
2018-05-10T11:59:59.045Z,13.13
2018-05-10T12:02:26.605Z,12.77
2018-05-10T12:04:54.424Z,12.53
2018-05-10T12:07:22.031Z,13.10
2018-05-10T12:09:49.564Z,13.77
2018-05-10T12:12:17.093Z,12.77
2018-05-10T12:14:44.650Z,12.90
2018-05-10T12:17:13.502Z,14.70
2018-05-10T12:19:41.140Z,13.27
2018-05-10T12:22:08.924Z,13.30
2018-05-10T12:24:36.456Z,12.07
2018-05-10T12:27:03.986Z,13.07
2018-05-10T12:29:31.782Z,12.33
2018-05-10T12:31:59.641Z,12.30
2018-05-10T12:34:27.414Z,12.40
2018-05-10T12:36:54.978Z,11.80
2018-05-10T12:39:22.843Z,12.23
2018-05-10T12:41:50.367Z,11.63
2018-05-10T12:44:18.269Z,12.07
2018-05-10T12:46:45.792Z,11.53
2018-05-10T12:49:13.347Z,11.82
2018-05-10T12:51:40.957Z,11.07
2018-05-10T12:54:08.686Z,11.50
2018-05-10T12:56:36.210Z,10.77
2018-05-10T12:59:04.020Z,10.82
2018-05-10T13:01:31.598Z,11.10
2018-05-10T13:03:59.157Z,10.82
2018-05-10T13:06:26.685Z,12.07
2018-05-10T13:08:54.292Z,11.40
2018-05-10T13:11:22.149Z,11.70
2018-05-10T13:13:49.690Z,12.10
2018-05-10T13:16:17.534Z,11.77
2018-05-10T13:18:45.075Z,12.10
2018-05-10T13:21:12.993Z,15.10
2018-05-10T13:23:40.526Z,12.40
2018-05-10T13:26:08.059Z,11.20
2018-05-10T13:28:35.701Z,12.03
2018-05-10T13:31:03.284Z,11.27
2018-05-10T13:33:30.832Z,12.35
2018-05-10T13:35:58.556Z,10.77
2018-05-10T13:38:26.127Z,11.18
2018-05-10T13:40:53.676Z,10.35
2018-05-10T13:43:21.251Z,11.12
2018-05-10T13:45:48.802Z,11.27
2018-05-10T13:48:16.829Z,11.35
2018-05-10T13:50:44.363Z,10.30
2018-05-10T13:53:11.891Z,10.95
2018-05-10T13:55:39.687Z,9.70
2018-05-10T13:58:07.212Z,11.05
2018-05-10T14:00:35.011Z,11.70
2018-05-10T14:03:02.566Z,11.07
2018-05-10T14:05:30.094Z,11.43
2018-05-10T14:07:57.993Z,11.00
2018-05-10T14:10:25.524Z,12.17
2018-05-10T14:12:53.091Z,11.40
2018-05-10T14:15:20.611Z,11.90
2018-05-10T14:17:48.917Z,11.40
2018-05-10T14:20:16.452Z,11.03
2018-05-10T14:22:44.012Z,11.00
2018-05-10T14:25:11.575Z,11.00
2018-05-10T14:27:39.098Z,10.57
2018-05-10T14:30:07.233Z,11.20
2018-05-10T14:32:34.787Z,11.40
2018-05-10T14:35:02.387Z,10.70
2018-05-10T14:37:29.906Z,11.37
2018-05-10T14:39:57.819Z,11.40
2018-05-10T14:42:25.383Z,11.40
2018-05-10T14:44:53.002Z,11.70
2018-05-10T14:47:20.587Z,11.60
2018-05-10T14:49:48.194Z,11.77
2018-05-10T14:52:15.729Z,12.57
2018-05-10T14:54:43.299Z,12.43
2018-05-10T14:57:10.803Z,12.03
2018-05-10T14:59:38.355Z,13.23
2018-05-10T15:02:05.877Z,11.20
2018-05-10T15:04:33.398Z,11.93
2018-05-10T15:07:00.932Z,11.70
2018-05-10T15:09:28.530Z,11.37
2018-05-10T15:11:56.077Z,12.07
2018-05-10T15:14:23.622Z,11.97
2018-05-10T15:16:51.195Z,11.90
2018-05-10T15:19:18.743Z,12.03
2018-05-10T15:21:46.263Z,12.37
2018-05-10T15:24:13.781Z,11.70
2018-05-10T15:26:41.571Z,11.50
2018-05-10T15:29:09.186Z,12.57
2018-05-10T15:31:36.743Z,11.60
2018-05-10T15:34:04.626Z,12.23
2018-05-10T15:36:32.164Z,13.07
2018-05-10T15:38:59.800Z,12.43
2018-05-10T15:41:27.328Z,12.53
2018-05-10T15:43:54.848Z,11.70
2018-05-10T15:46:22.376Z,13.63
2018-05-10T15:48:49.904Z,13.30
2018-05-10T15:51:17.431Z,13.27
2018-05-10T15:53:44.955Z,13.07
2018-05-10T15:56:13.478Z,13.00
2018-05-10T15:58:41.080Z,13.23
2018-05-10T16:01:08.703Z,14.20
2018-05-10T16:03:37.051Z,13.40
2018-05-10T16:06:04.619Z,14.40
2018-05-10T16:08:32.141Z,15.23
2018-05-10T16:10:59.683Z,18.47
2018-05-10T16:13:27.678Z,14.10
2018-05-10T16:15:55.472Z,15.17
2018-05-10T16:18:22.963Z,14.33
2018-05-10T16:20:50.530Z,13.07
2018-05-10T16:23:18.057Z,13.33
2018-05-10T16:25:45.640Z,13.00
2018-05-10T16:28:13.194Z,12.50
2018-05-10T16:30:40.763Z,11.93
2018-05-10T16:33:08.350Z,12.87
2018-05-10T16:35:35.952Z,13.57
2018-05-10T16:38:03.486Z,12.53
2018-05-10T16:40:31.083Z,12.10
2018-05-10T16:42:58.672Z,13.07
2018-05-10T16:45:26.232Z,12.67
2018-05-10T16:47:53.790Z,13.30
2018-05-10T16:50:23.759Z,12.63
2018-05-10T16:52:51.490Z,12.40
2018-05-10T16:55:19.037Z,11.83
2018-05-10T16:57:46.726Z,12.03
2018-05-10T17:00:14.329Z,12.50
2018-05-10T17:02:42.288Z,12.20
2018-05-10T17:05:09.901Z,12.80
2018-05-10T17:07:37.459Z,12.13
2018-05-10T17:10:05.390Z,13.40
2018-05-10T17:12:32.925Z,12.93
2018-05-10T17:15:00.503Z,14.90
2018-05-10T17:17:28.303Z,16.30
2018-05-10T17:19:56.673Z,13.63
2018-05-10T17:22:24.336Z,13.43
2018-05-10T17:24:51.891Z,14.30
2018-05-10T17:27:19.658Z,14.17
2018-05-10T17:29:47.190Z,13.30
2018-05-10T17:32:14.808Z,13.00
2018-05-10T17:34:42.364Z,12.70
2018-05-10T17:37:10.223Z,12.83
2018-05-10T17:39:37.812Z,12.53
2018-05-10T17:42:05.426Z,13.40
2018-05-10T17:44:33.029Z,13.17
2018-05-10T17:47:00.588Z,12.70
2018-05-10T17:49:28.136Z,12.97
2018-05-10T17:51:55.766Z,13.40
2018-05-10T17:54:23.820Z,13.33
2018-05-10T17:56:51.385Z,13.00
2018-05-10T17:59:18.944Z,13.87
2018-05-10T18:01:46.565Z,12.67
2018-05-10T18:04:14.183Z,12.73
2018-05-10T18:06:41.762Z,12.43
2018-05-10T18:09:09.391Z,13.07
2018-05-10T18:11:37.065Z,13.03
2018-05-10T18:14:04.741Z,13.40
2018-05-10T18:16:32.422Z,16.00
2018-05-10T18:18:59.954Z,19.50
2018-05-10T18:21:27.546Z,19.93
2018-05-10T18:23:55.091Z,22.03
2018-05-10T18:26:22.623Z,23.40
2018-05-10T18:28:50.191Z,22.20
2018-05-10T18:31:18.045Z,24.17
2018-05-10T18:33:45.608Z,22.97
2018-05-10T18:36:13.168Z,24.33
2018-05-10T18:38:40.738Z,24.87
2018-05-10T18:41:08.388Z,25.13
2018-05-10T18:43:35.953Z,24.73
2018-05-10T18:46:03.473Z,26.30
2018-05-10T18:48:31.233Z,24.70
2018-05-10T18:50:58.770Z,24.70
2018-05-10T18:53:26.308Z,27.47
2018-05-10T18:55:53.976Z,27.80
2018-05-10T18:58:21.701Z,28.50
2018-05-10T19:00:49.392Z,28.10
2018-05-10T19:03:17.264Z,29.77
2018-05-10T19:05:44.798Z,31.33
2018-05-10T19:08:12.483Z,32.37
2018-05-10T19:10:40.127Z,34.63
2018-05-10T19:13:07.677Z,32.63
2018-05-10T19:15:35.335Z,33.37
2018-05-10T19:18:03.039Z,31.73
2018-05-10T19:20:31.000Z,29.80
2018-05-10T19:22:58.551Z,29.23
2018-05-10T19:25:26.190Z,28.43
2018-05-10T19:27:53.850Z,27.20
2018-05-10T19:30:21.404Z,27.30
2018-05-10T19:32:48.976Z,25.60
2018-05-10T19:35:16.558Z,22.67
2018-05-10T19:37:44.131Z,23.40
2018-05-10T19:40:11.697Z,22.73
2018-05-10T19:42:39.243Z,23.87
2018-05-10T19:45:06.806Z,20.83
2018-05-10T19:47:34.431Z,21.43
2018-05-10T19:50:02.242Z,22.60
2018-05-10T19:52:30.062Z,21.73
2018-05-10T19:54:57.709Z,22.97
2018-05-10T19:57:25.238Z,23.70
2018-05-10T19:59:53.051Z,24.13
2018-05-10T20:02:20.679Z,22.10
2018-05-10T20:04:48.281Z,22.63
2018-05-10T20:07:15.908Z,24.40
2018-05-10T20:09:43.447Z,23.30
2018-05-10T20:12:11.003Z,22.17
2018-05-10T20:14:38.614Z,22.67
2018-05-10T20:17:06.141Z,23.30
2018-05-10T20:19:33.658Z,22.70
2018-05-10T20:22:01.172Z,22.57
2018-05-10T20:24:28.748Z,23.40
2018-05-10T20:26:56.283Z,23.80
2018-05-10T20:29:24.099Z,23.33
2018-05-10T20:31:51.601Z,23.67
2018-05-10T20:34:19.237Z,22.70
2018-05-10T20:36:46.769Z,23.60
2018-05-10T20:39:14.344Z,22.60
2018-05-10T20:41:41.891Z,22.60
2018-05-10T20:44:09.485Z,23.47
2018-05-10T20:46:37.023Z,21.90
2018-05-10T20:49:04.618Z,22.63
2018-05-10T20:51:32.226Z,22.43
2018-05-10T20:53:59.770Z,21.60
2018-05-10T20:56:27.273Z,23.53
2018-05-10T20:58:54.802Z,21.73
2018-05-10T21:01:22.323Z,22.20
2018-05-10T21:03:49.846Z,22.23
2018-05-10T21:06:17.529Z,21.10
2018-05-10T21:08:45.101Z,21.07
2018-05-10T21:11:12.631Z,20.87
2018-05-10T21:13:40.296Z,21.33
2018-05-10T21:16:08.090Z,22.60
2018-05-10T21:18:35.664Z,23.70
2018-05-10T21:21:03.165Z,23.23
2018-05-10T21:23:30.800Z,23.80
2018-05-10T21:25:58.391Z,24.30
2018-05-10T21:28:26.240Z,23.77
2018-05-10T21:30:53.756Z,23.43
2018-05-10T21:33:21.346Z,23.00
2018-05-10T21:35:48.977Z,26.77
2018-05-10T21:38:16.813Z,24.17
2018-05-10T21:40:44.412Z,24.73
2018-05-10T21:43:11.951Z,25.23
2018-05-10T21:45:39.451Z,26.17
2018-05-10T21:48:06.988Z,25.47
2018-05-10T21:50:34.572Z,26.90
2018-05-10T21:53:02.541Z,27.50
2018-05-10T21:55:30.493Z,27.20
2018-05-10T21:57:58.000Z,27.37
2018-05-10T22:00:25.554Z,26.93
2018-05-10T22:02:53.096Z,26.30
2018-05-10T22:05:20.680Z,25.93
2018-05-10T22:07:48.222Z,25.07
2018-05-10T22:10:15.868Z,24.60
2018-05-10T22:12:43.473Z,25.23
2018-05-10T22:15:11.309Z,22.10
2018-05-10T22:17:38.838Z,23.57
2018-05-10T22:20:08.076Z,23.70
2018-05-10T22:22:35.645Z,24.03
2018-05-10T22:25:03.175Z,23.67
2018-05-10T22:27:30.735Z,24.17
2018-05-10T22:29:58.406Z,25.00
2018-05-10T22:32:25.933Z,25.10
2018-05-10T22:34:53.465Z,26.10
2018-05-10T22:37:21.024Z,26.30
2018-05-10T22:39:48.636Z,28.27
2018-05-10T22:42:16.172Z,26.47
2018-05-10T22:44:43.724Z,30.17
2018-05-10T22:47:11.571Z,29.70
2018-05-10T22:49:39.392Z,30.90
2018-05-10T22:52:06.962Z,32.20
2018-05-10T22:54:34.613Z,32.83
2018-05-10T22:57:02.140Z,32.60
2018-05-10T22:59:29.692Z,34.60
2018-05-10T23:01:57.252Z,32.97
2018-05-10T23:04:24.796Z,34.93
2018-05-10T23:06:52.302Z,32.67
2018-05-10T23:09:19.894Z,31.97
2018-05-10T23:11:47.423Z,32.00
2018-05-10T23:14:14.948Z,35.43
2018-05-10T23:16:42.472Z,31.37
2018-05-10T23:19:10.071Z,31.97
2018-05-10T23:21:37.589Z,35.47
2018-05-10T23:24:05.450Z,31.87
2018-05-10T23:26:33.062Z,32.70
2018-05-10T23:29:00.613Z,32.13
2018-05-10T23:31:28.156Z,32.47
2018-05-10T23:33:55.668Z,32.20
2018-05-10T23:36:23.329Z,31.63
2018-05-10T23:38:50.921Z,30.33
2018-05-10T23:41:18.449Z,32.53
2018-05-10T23:43:46.022Z,30.93
2018-05-10T23:46:13.562Z,27.23
2018-05-10T23:48:41.091Z,29.03
2018-05-10T23:51:08.932Z,28.80
2018-05-10T23:53:36.446Z,28.50
2018-05-10T23:56:03.983Z,28.93
2018-05-10T23:58:31.499Z,27.07
